Terminal Aerodrome Forecast
Issued by NWS

Home | Current Version | Previous Version | Graphics & Text | Print | Product List | Glossary On
Versions: 1 2 3 4 5 6 7 8 9 10 11 12 13 14 15
339
FTUS43 KFGF 220520
TAFBJI
TAF
KBJI 220520Z 2206/2306 VRB03KT P6SM FEW200
     FM221700 26009KT P6SM SCT200
     FM222300 28012KT P6SM FEW130
     FM230200 27006KT P6SM FEW200=

USA.gov is the U.S. government's official web portal to all federal, state and local government web resources and services.